createdAt,value
2019-05-26T00:01:57.592Z,3.60
2019-05-26T00:04:25.340Z,3.63
2019-05-26T00:06:53.323Z,3.67
2019-05-26T00:09:21.621Z,4.20
2019-05-26T00:11:49.574Z,4.00
2019-05-26T00:14:17.538Z,4.17
2019-05-26T00:16:45.442Z,4.43
2019-05-26T00:19:13.559Z,3.73
2019-05-26T00:21:41.427Z,3.90
2019-05-26T00:24:09.368Z,3.93
2019-05-26T00:26:37.275Z,3.90
2019-05-26T00:29:05.350Z,4.40
2019-05-26T00:31:33.303Z,4.53
2019-05-26T00:34:00.963Z,4.10
2019-05-26T00:36:28.940Z,4.03
2019-05-26T00:38:56.745Z,3.93
2019-05-26T00:41:24.657Z,3.83
2019-05-26T00:43:52.527Z,4.00
2019-05-26T00:46:20.438Z,3.80
2019-05-26T00:48:48.400Z,4.40
2019-05-26T00:51:16.351Z,4.20
2019-05-26T00:53:44.433Z,4.17
2019-05-26T00:56:12.371Z,4.90
2019-05-26T00:58:40.338Z,4.80
2019-05-26T01:01:09.359Z,5.20
2019-05-26T01:03:37.418Z,5.23
2019-05-26T01:06:05.268Z,4.90
2019-05-26T01:08:33.354Z,5.03
2019-05-26T01:11:01.677Z,5.17
2019-05-26T01:13:29.582Z,4.60
2019-05-26T01:15:57.506Z,4.93
2019-05-26T01:18:25.425Z,5.03
2019-05-26T01:20:53.401Z,4.87
2019-05-26T01:23:21.301Z,5.43
2019-05-26T01:25:49.264Z,4.87
2019-05-26T01:28:17.235Z,5.20
2019-05-26T01:30:45.212Z,5.10
2019-05-26T01:33:13.132Z,5.23
2019-05-26T01:35:41.306Z,5.40
2019-05-26T01:38:23.349Z,5.30
2019-05-26T01:40:40.450Z,5.47
2019-05-26T01:43:08.483Z,5.73
2019-05-26T01:45:36.418Z,5.20
2019-05-26T01:48:04.753Z,5.50
2019-05-26T01:50:32.590Z,5.17
2019-05-26T01:53:00.698Z,5.33
2019-05-26T01:55:28.561Z,5.37
2019-05-26T01:57:56.606Z,5.63
2019-05-26T02:00:24.715Z,5.03
2019-05-26T02:02:52.657Z,4.60
2019-05-26T02:05:20.626Z,4.43
2019-05-26T02:07:48.617Z,4.30
2019-05-26T02:10:16.545Z,3.80
2019-05-26T02:12:46.149Z,3.90
2019-05-26T02:15:14.276Z,4.23
2019-05-26T02:17:42.086Z,4.20
2019-05-26T02:20:10.062Z,4.20
2019-05-26T02:22:38.171Z,4.17
2019-05-26T02:25:06.319Z,5.47
2019-05-26T02:27:34.064Z,4.50
2019-05-26T02:30:02.070Z,4.37
2019-05-26T02:32:30.013Z,5.10
2019-05-26T02:34:57.888Z,5.27
2019-05-26T02:37:25.834Z,5.00
2019-05-26T02:39:53.765Z,4.90
2019-05-26T02:42:21.672Z,4.53
2019-05-26T02:44:49.584Z,4.63
2019-05-26T02:47:17.508Z,4.33
2019-05-26T02:49:45.492Z,4.40
2019-05-26T02:52:13.799Z,4.20
2019-05-26T02:54:41.710Z,3.80
2019-05-26T02:57:09.588Z,4.63
2019-05-26T02:59:37.594Z,4.20
2019-05-26T03:02:05.516Z,3.70
2019-05-26T03:04:33.386Z,4.03
2019-05-26T03:07:01.798Z,4.33
2019-05-26T03:09:30.081Z,4.70
2019-05-26T03:11:59.035Z,4.33
2019-05-26T03:14:29.822Z,4.70
2019-05-26T03:16:59.482Z,5.23
2019-05-26T03:19:28.675Z,4.90
2019-05-26T03:21:58.296Z,4.63
2019-05-26T03:24:27.700Z,4.90
2019-05-26T03:26:56.032Z,4.80
2019-05-26T03:29:23.972Z,4.43
2019-05-26T03:31:51.896Z,5.00
2019-05-26T03:34:19.765Z,5.07
2019-05-26T03:36:47.666Z,4.70
2019-05-26T03:39:15.643Z,5.00
2019-05-26T03:41:43.668Z,5.50
2019-05-26T03:44:11.652Z,4.90
2019-05-26T03:46:39.611Z,6.20
2019-05-26T03:49:07.594Z,5.67
2019-05-26T03:51:35.575Z,5.43
2019-05-26T03:54:03.628Z,5.37
2019-05-26T03:56:31.584Z,6.70
2019-05-26T03:58:59.574Z,7.13
2019-05-26T04:01:27.515Z,7.40
2019-05-26T04:03:55.408Z,7.10
2019-05-26T04:06:23.498Z,5.30
2019-05-26T04:08:51.434Z,6.37
2019-05-26T04:11:19.332Z,6.37
2019-05-26T04:13:47.294Z,5.73
2019-05-26T04:16:15.550Z,5.97
2019-05-26T04:18:43.518Z,6.20
2019-05-26T04:21:11.517Z,6.77
2019-05-26T04:23:39.566Z,7.03
2019-05-26T04:26:07.411Z,7.20
2019-05-26T04:28:35.317Z,7.40
2019-05-26T04:31:03.239Z,7.57
2019-05-26T04:33:31.108Z,7.47
2019-05-26T04:35:59.030Z,7.60
2019-05-26T04:38:26.839Z,7.33
2019-05-26T04:40:54.638Z,6.63
2019-05-26T04:43:23.624Z,6.00
2019-05-26T04:45:51.467Z,6.70
2019-05-26T04:48:19.447Z,7.07
2019-05-26T04:50:47.358Z,7.10
2019-05-26T04:53:15.416Z,7.07
2019-05-26T04:55:43.335Z,7.20
2019-05-26T04:58:11.154Z,6.87
2019-05-26T05:00:39.104Z,6.23
2019-05-26T05:03:07.036Z,6.30
2019-05-26T05:05:34.971Z,6.53
2019-05-26T05:08:02.964Z,5.93
2019-05-26T05:10:41.946Z,7.30
2019-05-26T05:13:00.588Z,7.20
2019-05-26T05:15:28.520Z,5.53
2019-05-26T05:17:56.380Z,7.03
2019-05-26T05:20:24.397Z,8.27
2019-05-26T05:22:52.417Z,8.40
2019-05-26T05:25:20.312Z,9.90
2019-05-26T05:27:48.185Z,11.13
2019-05-26T05:30:16.447Z,10.90
2019-05-26T05:32:44.521Z,12.23
2019-05-26T05:35:13.530Z,11.70
2019-05-26T05:37:41.483Z,11.87
2019-05-26T05:40:09.332Z,12.60
2019-05-26T05:42:37.265Z,12.33
2019-05-26T05:45:05.493Z,14.33
2019-05-26T05:47:33.439Z,13.73
2019-05-26T05:50:01.348Z,13.43
2019-05-26T05:52:29.275Z,11.70
2019-05-26T05:54:57.036Z,12.53
2019-05-26T05:57:24.863Z,10.27
2019-05-26T05:59:52.659Z,10.03
2019-05-26T06:02:20.532Z,9.90
2019-05-26T06:04:48.464Z,10.57
2019-05-26T06:07:16.386Z,10.77
2019-05-26T06:09:44.804Z,11.00
2019-05-26T06:12:12.919Z,8.60
2019-05-26T06:14:41.035Z,7.90
2019-05-26T06:17:10.532Z,7.67
2019-05-26T06:19:38.712Z,7.60
2019-05-26T06:22:06.767Z,7.37
2019-05-26T06:24:34.724Z,6.50
2019-05-26T06:27:02.618Z,7.60
2019-05-26T06:29:30.549Z,8.37
2019-05-26T06:31:58.770Z,9.07
2019-05-26T06:34:27.145Z,9.87
2019-05-26T06:36:54.897Z,9.47
2019-05-26T06:39:22.943Z,9.00
2019-05-26T06:41:50.961Z,10.00
2019-05-26T06:44:19.289Z,11.17
2019-05-26T06:46:47.243Z,10.07
2019-05-26T06:49:15.432Z,9.87
2019-05-26T06:51:43.306Z,10.50
2019-05-26T06:54:11.171Z,10.20
2019-05-26T06:56:39.343Z,10.97
2019-05-26T06:59:07.286Z,12.57
2019-05-26T07:01:35.154Z,12.80
2019-05-26T07:04:03.058Z,10.10
2019-05-26T07:06:31.093Z,9.43
2019-05-26T07:08:59.007Z,10.00
2019-05-26T07:11:26.974Z,12.47
2019-05-26T07:13:54.899Z,10.95
2019-05-26T07:16:36.911Z,12.03
2019-05-26T07:18:53.363Z,10.53
2019-05-26T07:21:21.280Z,9.77
2019-05-26T07:23:49.683Z,10.07
2019-05-26T07:26:17.729Z,10.30
2019-05-26T07:28:45.485Z,10.60
2019-05-26T07:31:13.478Z,10.30
2019-05-26T07:33:41.460Z,10.80
2019-05-26T07:36:09.365Z,10.67
2019-05-26T07:38:37.242Z,11.67
2019-05-26T07:41:05.166Z,11.40
2019-05-26T07:43:33.079Z,10.70
2019-05-26T07:46:00.985Z,11.07
2019-05-26T07:48:29.058Z,10.80
2019-05-26T07:50:57.086Z,11.50
2019-05-26T07:53:25.071Z,11.00
2019-05-26T07:55:52.958Z,10.13
2019-05-26T07:58:20.902Z,9.53
2019-05-26T08:00:48.883Z,8.80
2019-05-26T08:03:16.758Z,8.13
2019-05-26T08:05:44.745Z,8.33
2019-05-26T08:08:13.706Z,8.17
2019-05-26T08:10:41.801Z,8.00
2019-05-26T08:13:09.828Z,7.67
2019-05-26T08:15:37.705Z,7.90
2019-05-26T08:18:05.619Z,7.70
2019-05-26T08:20:33.526Z,7.57
2019-05-26T08:23:01.820Z,6.93
2019-05-26T08:25:29.815Z,8.07
2019-05-26T08:27:57.736Z,7.43
2019-05-26T08:30:25.626Z,6.77
2019-05-26T08:32:53.660Z,5.83
2019-05-26T08:35:21.560Z,5.20
2019-05-26T08:37:49.452Z,4.37
2019-05-26T08:40:20.441Z,4.70
2019-05-26T08:42:48.966Z,6.13
2019-05-26T08:45:20.243Z,6.00
2019-05-26T08:47:46.562Z,7.13
2019-05-26T08:50:14.683Z,7.37
2019-05-26T08:52:42.698Z,8.53
2019-05-26T08:55:10.752Z,7.70
2019-05-26T08:57:38.733Z,8.33
2019-05-26T09:00:06.850Z,6.93
2019-05-26T09:02:34.866Z,7.77
2019-05-26T09:05:02.901Z,8.40
2019-05-26T09:07:30.870Z,10.10
2019-05-26T09:09:58.958Z,10.10
2019-05-26T09:12:26.923Z,10.57
2019-05-26T09:14:54.779Z,10.20
2019-05-26T09:17:22.679Z,11.20
2019-05-26T09:19:50.830Z,8.57
2019-05-26T09:22:18.785Z,8.63
2019-05-26T09:24:46.768Z,8.67
2019-05-26T09:27:14.623Z,11.40
2019-05-26T09:29:42.473Z,13.27
2019-05-26T09:32:10.495Z,11.40
2019-05-26T09:34:38.424Z,10.57
2019-05-26T09:37:06.292Z,10.57
2019-05-26T09:39:34.211Z,9.67
2019-05-26T09:42:02.239Z,7.07
2019-05-26T09:44:30.313Z,5.47
2019-05-26T09:46:58.215Z,5.40
2019-05-26T09:49:26.251Z,4.40
2019-05-26T09:51:54.138Z,3.93
2019-05-26T09:54:22.212Z,3.50
2019-05-26T09:56:50.158Z,4.10
2019-05-26T09:59:18.245Z,3.87
2019-05-26T10:01:46.105Z,4.40
2019-05-26T10:04:14.063Z,4.67
2019-05-26T10:06:41.910Z,5.13
2019-05-26T10:09:09.811Z,6.10
2019-05-26T10:11:37.866Z,7.07
2019-05-26T10:14:05.816Z,6.90
2019-05-26T10:16:33.718Z,7.85
2019-05-26T10:19:01.645Z,7.43
2019-05-26T10:21:29.610Z,7.43
2019-05-26T10:23:57.633Z,8.13
2019-05-26T10:26:25.571Z,7.77
2019-05-26T10:28:53.518Z,7.43
2019-05-26T10:31:21.627Z,8.20
2019-05-26T10:33:49.563Z,8.10
2019-05-26T10:36:17.552Z,8.77
2019-05-26T10:38:45.463Z,7.90
2019-05-26T10:41:13.367Z,8.38
2019-05-26T10:43:47.449Z,7.37
2019-05-26T10:46:10.906Z,6.03
2019-05-26T10:48:38.961Z,5.70
2019-05-26T10:51:07.099Z,6.30
2019-05-26T10:53:35.011Z,6.30
2019-05-26T10:56:02.924Z,5.77
2019-05-26T10:58:30.785Z,5.58
2019-05-26T11:00:58.723Z,6.13
2019-05-26T11:03:26.515Z,5.27
2019-05-26T11:05:54.503Z,4.87
2019-05-26T11:08:22.391Z,5.97
2019-05-26T11:10:50.437Z,5.27
2019-05-26T11:13:18.495Z,6.30
2019-05-26T11:15:46.397Z,5.37
2019-05-26T11:18:14.328Z,5.57
2019-05-26T11:20:42.602Z,5.07
2019-05-26T11:23:10.690Z,5.40
2019-05-26T11:25:38.760Z,5.33
2019-05-26T11:28:06.755Z,5.70
2019-05-26T11:30:35.028Z,5.10
2019-05-26T11:33:02.960Z,4.40
2019-05-26T11:35:30.829Z,5.33
2019-05-26T11:37:58.912Z,6.60
2019-05-26T11:40:26.764Z,5.67
2019-05-26T11:42:54.633Z,6.23
2019-05-26T11:45:22.545Z,6.77
2019-05-26T11:47:50.480Z,7.23
2019-05-26T11:50:18.538Z,8.88
2019-05-26T11:52:46.540Z,7.60
2019-05-26T11:55:14.510Z,7.30
2019-05-26T11:57:42.582Z,7.10
2019-05-26T12:00:11.902Z,6.90
2019-05-26T12:02:39.773Z,6.77
2019-05-26T12:05:07.782Z,6.37
2019-05-26T12:07:35.485Z,5.97
2019-05-26T12:10:03.702Z,6.70
2019-05-26T12:12:31.802Z,7.23
2019-05-26T12:14:59.621Z,8.30
2019-05-26T12:17:27.527Z,8.90
2019-05-26T12:19:55.375Z,10.07
2019-05-26T12:22:23.400Z,10.27
2019-05-26T12:24:51.366Z,9.33
2019-05-26T12:27:19.291Z,9.47
2019-05-26T12:29:47.198Z,10.43
2019-05-26T12:32:15.145Z,8.60
2019-05-26T12:34:43.081Z,8.90
2019-05-26T12:37:10.896Z,7.90
2019-05-26T12:39:38.842Z,8.10
2019-05-26T12:42:06.692Z,7.53
2019-05-26T12:44:48.672Z,9.17
2019-05-26T12:47:04.566Z,8.50
2019-05-26T12:49:32.540Z,9.67
2019-05-26T12:52:00.344Z,8.63
2019-05-26T12:54:28.169Z,5.57
2019-05-26T12:56:56.038Z,5.10
2019-05-26T12:59:23.998Z,4.97
2019-05-26T13:01:51.880Z,5.20
2019-05-26T13:04:19.511Z,5.33
2019-05-26T13:06:47.463Z,4.83
2019-05-26T13:09:15.218Z,4.43
2019-05-26T13:11:43.149Z,4.33
2019-05-26T13:14:11.238Z,4.83
2019-05-26T13:16:39.187Z,5.00
2019-05-26T13:19:07.074Z,5.10
2019-05-26T13:21:36.112Z,5.17
2019-05-26T13:24:04.117Z,5.47
2019-05-26T13:26:31.971Z,6.70
2019-05-26T13:28:59.971Z,5.60
2019-05-26T13:31:27.911Z,6.40
2019-05-26T13:33:56.026Z,5.87
2019-05-26T13:36:24.063Z,5.60
2019-05-26T13:38:52.134Z,5.33
2019-05-26T13:41:20.153Z,5.80
2019-05-26T13:43:48.027Z,6.00
2019-05-26T13:46:15.749Z,5.70
2019-05-26T13:48:44.512Z,5.93
2019-05-26T13:51:18.578Z,6.33
2019-05-26T13:53:42.439Z,6.67
2019-05-26T13:56:10.559Z,6.33
2019-05-26T13:58:38.595Z,6.20
2019-05-26T14:01:06.572Z,7.30
2019-05-26T14:03:34.467Z,6.27
2019-05-26T14:06:02.791Z,6.87
2019-05-26T14:08:30.817Z,6.83
2019-05-26T14:10:58.834Z,7.60
2019-05-26T14:13:26.820Z,6.93
2019-05-26T14:15:55.235Z,6.03
2019-05-26T14:18:23.271Z,6.23
2019-05-26T14:20:51.168Z,5.67
2019-05-26T14:23:19.035Z,6.10
2019-05-26T14:25:47.025Z,5.83
2019-05-26T14:28:14.871Z,6.43
2019-05-26T14:30:42.838Z,5.90
2019-05-26T14:33:10.842Z,5.30
2019-05-26T14:35:38.777Z,6.00
2019-05-26T14:38:06.948Z,5.80
2019-05-26T14:40:34.959Z,5.97
2019-05-26T14:43:02.920Z,5.83
2019-05-26T14:45:30.850Z,5.97
2019-05-26T14:47:58.776Z,5.53
2019-05-26T14:50:27.405Z,5.53
2019-05-26T14:52:55.391Z,5.93
2019-05-26T14:55:23.294Z,6.07
2019-05-26T14:57:51.208Z,5.70
2019-05-26T15:00:19.592Z,5.53
2019-05-26T15:02:47.593Z,6.00
2019-05-26T15:05:17.266Z,5.60
2019-05-26T15:07:45.135Z,5.23
2019-05-26T15:10:15.206Z,6.27
2019-05-26T15:12:43.027Z,6.75
2019-05-26T15:15:11.017Z,5.67
2019-05-26T15:17:38.988Z,6.60
2019-05-26T15:20:06.892Z,6.27
2019-05-26T15:22:34.797Z,6.53
2019-05-26T15:25:02.787Z,6.13
2019-05-26T15:27:30.710Z,6.33
2019-05-26T15:29:58.729Z,6.53
2019-05-26T15:32:26.594Z,6.20
2019-05-26T15:34:55.996Z,6.03
2019-05-26T15:37:23.939Z,5.60
2019-05-26T15:39:51.942Z,6.53
2019-05-26T15:42:20.074Z,6.43
2019-05-26T15:44:48.034Z,5.93
2019-05-26T15:47:16.124Z,6.30
2019-05-26T15:49:43.979Z,4.93
2019-05-26T15:52:11.816Z,5.00
2019-05-26T15:54:39.758Z,4.50
2019-05-26T15:57:07.672Z,3.93
2019-05-26T15:59:35.658Z,4.30
2019-05-26T16:02:03.544Z,4.60
2019-05-26T16:04:31.467Z,4.50
2019-05-26T16:06:59.322Z,3.97
2019-05-26T16:09:27.256Z,4.17
2019-05-26T16:11:55.226Z,4.80
2019-05-26T16:14:23.145Z,4.27
2019-05-26T16:16:51.557Z,4.73
2019-05-26T16:19:19.493Z,5.27
2019-05-26T16:21:47.461Z,5.00
2019-05-26T16:24:15.359Z,5.20
2019-05-26T16:26:43.413Z,5.40
2019-05-26T16:29:11.613Z,5.70
2019-05-26T16:31:39.585Z,5.17
2019-05-26T16:34:07.512Z,5.37
2019-05-26T16:36:35.595Z,4.83
2019-05-26T16:39:05.059Z,5.87
2019-05-26T16:41:32.977Z,5.60
2019-05-26T16:44:00.879Z,5.90
2019-05-26T16:46:28.827Z,6.27
2019-05-26T16:48:56.534Z,7.10
2019-05-26T16:51:24.537Z,6.23
2019-05-26T16:53:52.523Z,6.97
2019-05-26T16:56:20.464Z,6.73
2019-05-26T16:58:48.443Z,6.77
2019-05-26T17:01:16.341Z,7.67
2019-05-26T17:03:44.378Z,7.80
2019-05-26T17:06:12.230Z,8.37
2019-05-26T17:08:40.316Z,8.37
2019-05-26T17:11:08.163Z,8.60
2019-05-26T17:13:35.971Z,7.63
2019-05-26T17:16:04.139Z,8.80
2019-05-26T17:18:31.975Z,9.00
2019-05-26T17:21:00.088Z,8.73
2019-05-26T17:23:28.047Z,9.40
2019-05-26T17:25:56.096Z,8.67
2019-05-26T17:28:23.966Z,8.70
2019-05-26T17:30:51.864Z,8.30
2019-05-26T17:33:19.717Z,9.33
2019-05-26T17:35:47.681Z,9.07
2019-05-26T17:38:15.677Z,9.17
2019-05-26T17:40:43.596Z,9.60
2019-05-26T17:43:11.671Z,8.77
2019-05-26T17:45:39.584Z,9.50
2019-05-26T17:48:07.486Z,8.80
2019-05-26T17:50:35.368Z,9.03
2019-05-26T17:53:03.354Z,9.33
2019-05-26T17:55:31.281Z,10.53
2019-05-26T17:57:59.221Z,9.67
2019-05-26T18:00:27.163Z,8.83
2019-05-26T18:02:55.335Z,9.70
2019-05-26T18:05:23.310Z,9.03
2019-05-26T18:07:51.280Z,8.67
2019-05-26T18:10:19.415Z,8.73
2019-05-26T18:12:47.289Z,8.23
2019-05-26T18:15:15.279Z,7.87
2019-05-26T18:17:47.446Z,7.80
2019-05-26T18:20:13.180Z,6.97
2019-05-26T18:22:41.319Z,6.60
2019-05-26T18:25:09.681Z,6.37
2019-05-26T18:27:37.680Z,6.00
2019-05-26T18:30:06.608Z,6.97
2019-05-26T18:32:34.540Z,6.40
2019-05-26T18:35:02.418Z,5.97
2019-05-26T18:37:30.385Z,6.50
2019-05-26T18:39:58.326Z,6.33
2019-05-26T18:42:27.135Z,5.13
2019-05-26T18:44:55.290Z,4.90
2019-05-26T18:47:23.252Z,5.73
2019-05-26T18:49:51.147Z,5.40
2019-05-26T18:52:19.293Z,5.33
2019-05-26T18:54:47.302Z,5.23
2019-05-26T18:57:15.365Z,5.67
2019-05-26T18:59:43.415Z,5.93
2019-05-26T19:02:11.276Z,5.27
2019-05-26T19:04:39.226Z,5.93
2019-05-26T19:07:07.365Z,5.70
2019-05-26T19:09:35.300Z,5.80
2019-05-26T19:12:03.450Z,5.43
2019-05-26T19:14:31.563Z,5.20
2019-05-26T19:16:59.630Z,4.87
2019-05-26T19:19:28.053Z,5.67
2019-05-26T19:21:56.083Z,5.20
2019-05-26T19:24:24.000Z,4.77
2019-05-26T19:26:51.874Z,5.27
2019-05-26T19:29:19.946Z,5.20
2019-05-26T19:31:48.263Z,4.93
2019-05-26T19:34:16.396Z,5.47
2019-05-26T19:36:44.672Z,5.90
2019-05-26T19:39:12.845Z,4.97
2019-05-26T19:41:41.940Z,5.33
2019-05-26T19:44:10.292Z,4.87
2019-05-26T19:46:45.664Z,5.20
2019-05-26T19:49:14.417Z,5.13
2019-05-26T19:51:42.531Z,5.43
2019-05-26T19:54:11.042Z,5.33
2019-05-26T19:56:39.171Z,5.47
2019-05-26T19:59:07.253Z,4.93
2019-05-26T20:01:35.210Z,5.20
2019-05-26T20:04:05.739Z,5.10
2019-05-26T20:06:34.575Z,4.90
2019-05-26T20:09:03.113Z,4.40
2019-05-26T20:11:32.716Z,5.20
2019-05-26T20:14:00.995Z,5.00
2019-05-26T20:16:31.346Z,4.70
2019-05-26T20:19:02.574Z,4.50
2019-05-26T20:21:34.104Z,4.77
2019-05-26T20:24:02.904Z,4.97
2019-05-26T20:26:32.823Z,4.80
2019-05-26T20:29:03.858Z,4.77
2019-05-26T20:31:34.027Z,5.67
2019-05-26T20:34:03.717Z,5.80
2019-05-26T20:36:31.991Z,5.47
2019-05-26T20:39:00.319Z,5.30
2019-05-26T20:41:28.531Z,5.20
2019-05-26T20:43:56.676Z,5.60
2019-05-26T20:46:24.793Z,5.77
2019-05-26T20:48:52.859Z,5.70
2019-05-26T20:51:21.139Z,5.47
2019-05-26T20:53:49.055Z,5.87
2019-05-26T20:56:17.068Z,5.37
2019-05-26T20:58:45.009Z,6.00
2019-05-26T21:01:12.858Z,5.93
2019-05-26T21:03:40.823Z,5.37
2019-05-26T21:06:08.732Z,5.47
2019-05-26T21:08:36.787Z,5.83
2019-05-26T21:11:04.775Z,5.87
2019-05-26T21:13:32.703Z,5.80
2019-05-26T21:16:19.863Z,5.37
2019-05-26T21:18:47.786Z,5.23
2019-05-26T21:21:15.757Z,5.03
2019-05-26T21:23:43.662Z,5.47
2019-05-26T21:26:11.586Z,5.07
2019-05-26T21:28:39.467Z,5.33
2019-05-26T21:31:07.358Z,5.30
2019-05-26T21:33:35.181Z,5.17
2019-05-26T21:36:03.455Z,5.07
2019-05-26T21:38:31.387Z,5.53
2019-05-26T21:40:59.562Z,5.30
2019-05-26T21:43:27.496Z,5.57
2019-05-26T21:45:55.511Z,5.50
2019-05-26T21:48:42.508Z,5.90
2019-05-26T21:51:12.302Z,6.17
2019-05-26T21:53:40.353Z,5.67
2019-05-26T21:56:08.293Z,5.30
2019-05-26T21:58:36.310Z,5.27
2019-05-26T22:01:04.772Z,5.33
2019-05-26T22:03:32.549Z,5.47
2019-05-26T22:06:00.632Z,5.10
2019-05-26T22:08:30.013Z,5.53
2019-05-26T22:10:58.204Z,5.37
2019-05-26T22:13:26.185Z,5.67
2019-05-26T22:15:54.104Z,5.43
2019-05-26T22:18:22.096Z,5.80
2019-05-26T22:20:50.101Z,5.57
2019-05-26T22:23:18.125Z,6.47
2019-05-26T22:25:45.977Z,6.17
2019-05-26T22:28:13.880Z,5.47
2019-05-26T22:30:41.877Z,6.30
2019-05-26T22:33:09.898Z,5.93
2019-05-26T22:35:37.791Z,6.33
2019-05-26T22:38:05.718Z,7.30
2019-05-26T22:40:33.564Z,6.23
2019-05-26T22:43:01.410Z,7.67
2019-05-26T22:45:29.322Z,6.43
2019-05-26T22:47:57.404Z,6.93
2019-05-26T22:50:25.416Z,7.00
2019-05-26T22:52:53.348Z,7.43
2019-05-26T22:55:21.186Z,6.83
2019-05-26T22:57:49.100Z,7.07
2019-05-26T23:00:17.204Z,6.93
2019-05-26T23:02:45.217Z,6.83
2019-05-26T23:05:13.315Z,6.87
2019-05-26T23:07:41.246Z,7.30
2019-05-26T23:10:09.108Z,7.23
2019-05-26T23:12:37.140Z,8.20
2019-05-26T23:15:05.370Z,7.50
2019-05-26T23:17:33.235Z,7.40
2019-05-26T23:20:01.156Z,7.97
2019-05-26T23:22:28.951Z,7.10
2019-05-26T23:24:56.830Z,7.50
2019-05-26T23:27:24.822Z,7.93
2019-05-26T23:29:52.746Z,7.47
2019-05-26T23:32:20.622Z,7.30
2019-05-26T23:34:48.694Z,7.43
2019-05-26T23:37:16.697Z,6.50
2019-05-26T23:39:44.639Z,6.93
2019-05-26T23:42:12.645Z,6.37
2019-05-26T23:44:40.601Z,6.43
2019-05-26T23:47:08.429Z,6.43
2019-05-26T23:49:36.409Z,6.40
2019-05-26T23:52:04.507Z,6.57
2019-05-26T23:54:32.434Z,5.80
2019-05-26T23:57:00.457Z,5.77
2019-05-26T23:59:28.475Z,5.90
